5AL9 weather

Athens-Limestone Hospital Helipad
Athens, Alabama, United States

Public forecast

Using degrees Fahrenheit for public forecast. Weather courtesy of forecast.io.

Closest aviation weather report (METAR) to Athens-Limestone Hospital Helipad

Closest report is Pryor Field Regional Airport, 9.2 nm (17.0 km) S. Retrieved 2019/10/15 02:53 UTC (38 minutes ago):

KDCU 150253Z AUTO 00000KT 10SM OVC038 18/13 A3010 RMK AO2 SLP190 T01830133 50004

Closest aviation forecast (TAF) to Athens-Limestone Hospital Helipad

Closest forecast is Huntsville International Carl T Jones Field, 14.2 nm (26.3 km) SE. Retrieved 2019-10-15 00:22 UTC (3 hours ago):

TAF KHSV 142320Z 1500/1524 VRB02KT P6SM BKN050 OVC200 FM151500 15007KT P6SM SCT025 BKN035 FM151900 15007KT 5SM -RA BKN015 OVC025